Ridgecrest, CA

2:38 AM PDT on March 27, 2017 (GMT -0700)
Indian Wells Valley | | Change Station
Active Advisory: High Wind Warning

Elev 2333 ft 35.64 °N, 117.69 °W | Updated 8 minutes ago

Clear
Clear
52.4 °F
Feels Like 52.4 °F
N
0.0
Wind Variable Wind from SE
Gusts 0.0 mph

Today
High -- | Low -- °F
--% Chance of Precip.
Yesterday
High -- | Low -- °F
Precip. -- in
Pressure 29.87 in
Visibility 10.0 miles
Clouds Clear
Dew Point 35 °F
Humidity 52%
Rainfall 0.00 in
Snow Depth Not available.
6:43 AM 7:08 PM
Waning Crescent, 1% visible
METAR KNID 270856Z AUTO 28004KT 10SM CLR 13/01 A2989 RMK AO2 SLP115 T01280006 55000 $
Pressure 29.87 in
Visibility 10.0 miles
Clouds Clear
Dew Point 35 °F
Humidity 52%
Rainfall 0.00 in
Snow Depth Not available.
6:43 AM 7:08 PM
Waning Crescent, 1% visible
METAR KNID 270856Z AUTO 28004KT 10SM CLR 13/01 A2989 RMK AO2 SLP115 T01280006 55000 $

Get Your Daily Forecast Email!

Thanks for signing up!

Be on the lookout for a verification email in your inbox.

You'll start receiving severe weather alerts in your inbox..

×

10-Day Weather Forecast

Almanac

Astronomy

Mar. 27, 2017 Rise Set
Actual Time
Civil Twilight
Nautical Twilight
Astronomical Twilight
Moon
Length of Visible Light
Length of Day
Tomorrow will be .
, % of the Moon is Illuminated

Today's Extremes

State Highs State Lows

Community

WunderPhotos

Upload Photos

1,962,540 photos uploaded!

WunderBlog® & News

Nearby

Air Quality

  Air Quality AQ Index Pollutant
Not available.

Snow Depth

Station Depth Elevation

Earthquake Activity

City Distance Mag. Time & Date
Minimum magnitude displayed is 2.5.

Earthquake Activity

City Distance Mag. Time & Date
Minimum magnitude displayed is 2.5.

Coastal Water Temperatures

Place Temperature

Stations

Nearby Weather Stations

Station Location Temp. Windchill Dew Point Humidity Wind Precip. Elev Updated Type
                   

Watches & Warnings

High Wind Warning
Issued: 8:41 PM PDT Mar. 26, 2017 – National Weather Service

... High Wind Warning remains in effect from 8 am to 11 PM PDT
Monday...

* winds... northwest 30 to 40 mph with gusts up to 60 mph.

* Timing... winds will increase Monday morning with the strongest
gust potential occurring in the afternoon.

* Impacts... damaging winds will blow down trees and power lines.
Widespread power outages are expected. Travel will be
difficult, especially for high profile vehicles.

Precautionary/preparedness actions...

A High Wind Warning means a hazardous high wind event is expected
or occurring. Sustained wind speeds of at least 40 mph or gusts
of 58 mph or more can lead to property damage.